sensor_id;sensor_type;location;lat;lon;timestamp;P1;durP1;ratioP1;P2;durP2;ratioP2
7529;SDS011;3806;52.270;10.544;2023-03-21T00:01:53;11.35;;;7.70;;
7529;SDS011;3806;52.270;10.544;2023-03-21T00:04:19;13.73;;;8.35;;
7529;SDS011;3806;52.270;10.544;2023-03-21T00:06:46;12.85;;;7.60;;
7529;SDS011;3806;52.270;10.544;2023-03-21T00:09:11;16.02;;;7.90;;
7529;SDS011;3806;52.270;10.544;2023-03-21T00:11:37;13.20;;;8.30;;
7529;SDS011;3806;52.270;10.544;2023-03-21T00:14:02;13.95;;;8.50;;
7529;SDS011;3806;52.270;10.544;2023-03-21T00:16:28;23.35;;;8.65;;
7529;SDS011;3806;52.270;10.544;2023-03-21T00:18:56;14.88;;;7.95;;
7529;SDS011;3806;52.270;10.544;2023-03-21T00:21:23;12.65;;;7.90;;
7529;SDS011;3806;52.270;10.544;2023-03-21T00:23:53;12.90;;;6.85;;
7529;SDS011;3806;52.270;10.544;2023-03-21T00:26:19;14.90;;;8.65;;
7529;SDS011;3806;52.270;10.544;2023-03-21T00:28:46;14.48;;;7.85;;
7529;SDS011;3806;52.270;10.544;2023-03-21T00:31:12;13.05;;;8.90;;
7529;SDS011;3806;52.270;10.544;2023-03-21T00:33:38;14.02;;;7.72;;
7529;SDS011;3806;52.270;10.544;2023-03-21T00:36:05;12.75;;;7.90;;
7529;SDS011;3806;52.270;10.544;2023-03-21T00:38:32;11.70;;;8.50;;
7529;SDS011;3806;52.270;10.544;2023-03-21T00:40:58;12.55;;;7.97;;
7529;SDS011;3806;52.270;10.544;2023-03-21T00:43:24;15.95;;;7.80;;
7529;SDS011;3806;52.270;10.544;2023-03-21T00:45:54;13.52;;;7.80;;
7529;SDS011;3806;52.270;10.544;2023-03-21T00:48:21;15.23;;;9.10;;
7529;SDS011;3806;52.270;10.544;2023-03-21T00:50:48;14.68;;;9.13;;
7529;SDS011;3806;52.270;10.544;2023-03-21T00:53:17;13.73;;;8.60;;
7529;SDS011;3806;52.270;10.544;2023-03-21T00:55:43;13.07;;;8.77;;
7529;SDS011;3806;52.270;10.544;2023-03-21T00:58:08;14.82;;;9.05;;
7529;SDS011;3806;52.270;10.544;2023-03-21T01:00:34;15.32;;;9.77;;
7529;SDS011;3806;52.270;10.544;2023-03-21T01:03:01;15.80;;;8.73;;
7529;SDS011;3806;52.270;10.544;2023-03-21T01:05:30;13.70;;;8.57;;
7529;SDS011;3806;52.270;10.544;2023-03-21T01:08:16;15.57;;;9.65;;
7529;SDS011;3806;52.270;10.544;2023-03-21T01:10:44;14.85;;;9.65;;
7529;SDS011;3806;52.270;10.544;2023-03-21T01:13:12;14.07;;;9.50;;
7529;SDS011;3806;52.270;10.544;2023-03-21T01:15:44;14.43;;;9.05;;
7529;SDS011;3806;52.270;10.544;2023-03-21T01:18:11;12.48;;;8.75;;
7529;SDS011;3806;52.270;10.544;2023-03-21T01:20:39;12.80;;;9.27;;
7529;SDS011;3806;52.270;10.544;2023-03-21T01:23:05;14.63;;;8.70;;
7529;SDS011;3806;52.270;10.544;2023-03-21T01:25:31;15.07;;;9.70;;
7529;SDS011;3806;52.270;10.544;2023-03-21T01:27:57;15.10;;;9.00;;
7529;SDS011;3806;52.270;10.544;2023-03-21T01:30:22;18.77;;;9.57;;
7529;SDS011;3806;52.270;10.544;2023-03-21T01:32:48;15.88;;;9.55;;
7529;SDS011;3806;52.270;10.544;2023-03-21T01:35:14;12.82;;;8.75;;
7529;SDS011;3806;52.270;10.544;2023-03-21T01:37:39;15.82;;;8.82;;
7529;SDS011;3806;52.270;10.544;2023-03-21T01:40:05;14.75;;;10.75;;
7529;SDS011;3806;52.270;10.544;2023-03-21T01:42:36;18.90;;;10.00;;
7529;SDS011;3806;52.270;10.544;2023-03-21T01:45:03;15.07;;;9.82;;
7529;SDS011;3806;52.270;10.544;2023-03-21T01:47:49;13.93;;;9.35;;
7529;SDS011;3806;52.270;10.544;2023-03-21T01:50:15;13.95;;;8.13;;
7529;SDS011;3806;52.270;10.544;2023-03-21T01:52:41;14.45;;;8.55;;
7529;SDS011;3806;52.270;10.544;2023-03-21T01:55:07;13.45;;;9.57;;
7529;SDS011;3806;52.270;10.544;2023-03-21T01:57:39;15.40;;;9.18;;
7529;SDS011;3806;52.270;10.544;2023-03-21T02:00:13;15.02;;;9.52;;
7529;SDS011;3806;52.270;10.544;2023-03-21T02:02:42;16.08;;;9.40;;
7529;SDS011;3806;52.270;10.544;2023-03-21T02:05:21;13.60;;;9.10;;
7529;SDS011;3806;52.270;10.544;2023-03-21T02:07:51;15.40;;;9.43;;
7529;SDS011;3806;52.270;10.544;2023-03-21T02:10:17;14.25;;;8.90;;
7529;SDS011;3806;52.270;10.544;2023-03-21T02:12:42;15.63;;;9.23;;
7529;SDS011;3806;52.270;10.544;2023-03-21T02:15:09;14.07;;;8.05;;
7529;SDS011;3806;52.270;10.544;2023-03-21T02:23:12;12.68;;;7.15;;
7529;SDS011;3806;52.270;10.544;2023-03-21T02:29:16;11.85;;;7.25;;
7529;SDS011;3806;52.270;10.544;2023-03-21T02:32:05;15.13;;;7.28;;
7529;SDS011;3806;52.270;10.544;2023-03-21T02:39:39;12.93;;;8.13;;
7529;SDS011;3806;52.270;10.544;2023-03-21T02:42:26;15.70;;;7.30;;
7529;SDS011;3806;52.270;10.544;2023-03-21T02:45:01;14.05;;;7.28;;
7529;SDS011;3806;52.270;10.544;2023-03-21T02:47:49;12.40;;;7.45;;
7529;SDS011;3806;52.270;10.544;2023-03-21T02:52:56;11.18;;;6.60;;
7529;SDS011;3806;52.270;10.544;2023-03-21T02:55:24;12.63;;;7.40;;
7529;SDS011;3806;52.270;10.544;2023-03-21T02:57:54;11.90;;;7.07;;
7529;SDS011;3806;52.270;10.544;2023-03-21T03:00:22;13.77;;;8.50;;
7529;SDS011;3806;52.270;10.544;2023-03-21T03:02:50;16.13;;;8.27;;
7529;SDS011;3806;52.270;10.544;2023-03-21T03:05:17;11.40;;;6.53;;
7529;SDS011;3806;52.270;10.544;2023-03-21T03:07:55;12.52;;;7.55;;
7529;SDS011;3806;52.270;10.544;2023-03-21T03:11:04;14.63;;;7.78;;
7529;SDS011;3806;52.270;10.544;2023-03-21T03:16:30;13.63;;;7.25;;
7529;SDS011;3806;52.270;10.544;2023-03-21T03:19:14;14.20;;;7.43;;
7529;SDS011;3806;52.270;10.544;2023-03-21T03:21:58;14.55;;;8.18;;
7529;SDS011;3806;52.270;10.544;2023-03-21T03:24:36;13.25;;;7.43;;
7529;SDS011;3806;52.270;10.544;2023-03-21T03:27:10;12.40;;;7.32;;
7529;SDS011;3806;52.270;10.544;2023-03-21T03:29:41;18.55;;;8.50;;
7529;SDS011;3806;52.270;10.544;2023-03-21T03:32:11;13.38;;;7.32;;
7529;SDS011;3806;52.270;10.544;2023-03-21T03:34:43;11.32;;;7.60;;
7529;SDS011;3806;52.270;10.544;2023-03-21T03:37:14;13.32;;;7.70;;
7529;SDS011;3806;52.270;10.544;2023-03-21T03:39:45;11.55;;;6.80;;
7529;SDS011;3806;52.270;10.544;2023-03-21T03:42:18;16.35;;;8.68;;
7529;SDS011;3806;52.270;10.544;2023-03-21T03:44:48;15.02;;;7.63;;
7529;SDS011;3806;52.270;10.544;2023-03-21T03:47:26;15.50;;;7.90;;
7529;SDS011;3806;52.270;10.544;2023-03-21T03:50:06;12.18;;;7.50;;
7529;SDS011;3806;52.270;10.544;2023-03-21T03:52:45;15.80;;;7.70;;
7529;SDS011;3806;52.270;10.544;2023-03-21T03:55:18;15.02;;;7.68;;
7529;SDS011;3806;52.270;10.544;2023-03-21T03:57:46;12.02;;;7.30;;
7529;SDS011;3806;52.270;10.544;2023-03-21T04:00:12;16.77;;;7.97;;
7529;SDS011;3806;52.270;10.544;2023-03-21T04:02:41;12.73;;;7.05;;
7529;SDS011;3806;52.270;10.544;2023-03-21T04:05:06;12.38;;;7.63;;
7529;SDS011;3806;52.270;10.544;2023-03-21T04:07:32;16.85;;;7.97;;
7529;SDS011;3806;52.270;10.544;2023-03-21T04:09:58;12.15;;;7.50;;
7529;SDS011;3806;52.270;10.544;2023-03-21T04:12:24;12.95;;;7.35;;
7529;SDS011;3806;52.270;10.544;2023-03-21T04:14:49;16.10;;;8.07;;
7529;SDS011;3806;52.270;10.544;2023-03-21T04:17:15;14.82;;;7.55;;
7529;SDS011;3806;52.270;10.544;2023-03-21T04:19:42;17.00;;;9.00;;
7529;SDS011;3806;52.270;10.544;2023-03-21T04:22:09;16.60;;;7.47;;
7529;SDS011;3806;52.270;10.544;2023-03-21T04:24:35;12.60;;;7.15;;
7529;SDS011;3806;52.270;10.544;2023-03-21T04:27:01;15.60;;;7.55;;
7529;SDS011;3806;52.270;10.544;2023-03-21T04:29:27;13.52;;;7.00;;
7529;SDS011;3806;52.270;10.544;2023-03-21T04:31:53;11.00;;;7.20;;
7529;SDS011;3806;52.270;10.544;2023-03-21T04:34:19;8.35;;;6.13;;
7529;SDS011;3806;52.270;10.544;2023-03-21T04:36:48;14.02;;;7.80;;
7529;SDS011;3806;52.270;10.544;2023-03-21T04:39:14;11.60;;;6.97;;
7529;SDS011;3806;52.270;10.544;2023-03-21T04:41:42;10.52;;;6.30;;
7529;SDS011;3806;52.270;10.544;2023-03-21T04:44:08;12.13;;;7.00;;
7529;SDS011;3806;52.270;10.544;2023-03-21T04:46:35;10.13;;;6.55;;
7529;SDS011;3806;52.270;10.544;2023-03-21T04:49:02;10.80;;;6.68;;
7529;SDS011;3806;52.270;10.544;2023-03-21T04:51:28;12.57;;;7.28;;
7529;SDS011;3806;52.270;10.544;2023-03-21T04:53:54;12.48;;;6.40;;
7529;SDS011;3806;52.270;10.544;2023-03-21T04:56:22;10.70;;;6.20;;
7529;SDS011;3806;52.270;10.544;2023-03-21T04:59:00;11.20;;;7.68;;
7529;SDS011;3806;52.270;10.544;2023-03-21T05:01:29;11.00;;;6.85;;
7529;SDS011;3806;52.270;10.544;2023-03-21T05:03:56;12.35;;;7.38;;
7529;SDS011;3806;52.270;10.544;2023-03-21T05:06:22;12.15;;;7.10;;
7529;SDS011;3806;52.270;10.544;2023-03-21T05:08:48;13.02;;;6.30;;
7529;SDS011;3806;52.270;10.544;2023-03-21T05:11:13;12.82;;;6.25;;
7529;SDS011;3806;52.270;10.544;2023-03-21T05:13:39;12.18;;;6.88;;
7529;SDS011;3806;52.270;10.544;2023-03-21T05:16:05;12.43;;;6.68;;
7529;SDS011;3806;52.270;10.544;2023-03-21T05:18:31;17.88;;;7.03;;
7529;SDS011;3806;52.270;10.544;2023-03-21T05:20:58;16.00;;;6.88;;
7529;SDS011;3806;52.270;10.544;2023-03-21T05:23:24;12.85;;;6.68;;
7529;SDS011;3806;52.270;10.544;2023-03-21T05:25:49;10.23;;;6.72;;
7529;SDS011;3806;52.270;10.544;2023-03-21T05:28:15;10.25;;;6.40;;
7529;SDS011;3806;52.270;10.544;2023-03-21T05:30:44;10.77;;;6.55;;
7529;SDS011;3806;52.270;10.544;2023-03-21T05:33:11;13.23;;;7.07;;
7529;SDS011;3806;52.270;10.544;2023-03-21T05:35:37;13.98;;;6.50;;
7529;SDS011;3806;52.270;10.544;2023-03-21T05:38:03;10.50;;;6.93;;
7529;SDS011;3806;52.270;10.544;2023-03-21T05:40:28;12.65;;;6.82;;
7529;SDS011;3806;52.270;10.544;2023-03-21T05:42:54;15.38;;;7.45;;
7529;SDS011;3806;52.270;10.544;2023-03-21T05:45:20;12.52;;;7.38;;
7529;SDS011;3806;52.270;10.544;2023-03-21T05:47:45;13.93;;;7.32;;
7529;SDS011;3806;52.270;10.544;2023-03-21T05:50:11;11.45;;;6.25;;
7529;SDS011;3806;52.270;10.544;2023-03-21T05:52:37;16.27;;;8.63;;
7529;SDS011;3806;52.270;10.544;2023-03-21T05:55:03;13.32;;;7.40;;
7529;SDS011;3806;52.270;10.544;2023-03-21T05:57:29;11.50;;;6.18;;
7529;SDS011;3806;52.270;10.544;2023-03-21T05:59:58;13.63;;;7.32;;
7529;SDS011;3806;52.270;10.544;2023-03-21T06:02:24;11.65;;;6.45;;
7529;SDS011;3806;52.270;10.544;2023-03-21T06:04:50;13.77;;;6.13;;
7529;SDS011;3806;52.270;10.544;2023-03-21T06:07:15;12.23;;;6.70;;
7529;SDS011;3806;52.270;10.544;2023-03-21T06:09:41;14.55;;;7.28;;
7529;SDS011;3806;52.270;10.544;2023-03-21T06:12:07;13.50;;;6.90;;
7529;SDS011;3806;52.270;10.544;2023-03-21T06:14:32;14.95;;;6.82;;
7529;SDS011;3806;52.270;10.544;2023-03-21T06:16:58;11.50;;;6.25;;
7529;SDS011;3806;52.270;10.544;2023-03-21T06:19:23;12.63;;;6.53;;
7529;SDS011;3806;52.270;10.544;2023-03-21T06:21:50;12.30;;;6.20;;
7529;SDS011;3806;52.270;10.544;2023-03-21T06:24:15;15.30;;;6.43;;
7529;SDS011;3806;52.270;10.544;2023-03-21T06:26:41;12.82;;;6.80;;
7529;SDS011;3806;52.270;10.544;2023-03-21T06:29:07;9.73;;;6.07;;
7529;SDS011;3806;52.270;10.544;2023-03-21T06:31:33;15.20;;;5.90;;
7529;SDS011;3806;52.270;10.544;2023-03-21T06:33:58;13.25;;;5.97;;
7529;SDS011;3806;52.270;10.544;2023-03-21T06:36:24;11.45;;;6.35;;
7529;SDS011;3806;52.270;10.544;2023-03-21T06:38:49;11.63;;;6.32;;
7529;SDS011;3806;52.270;10.544;2023-03-21T06:41:15;8.07;;;5.38;;
7529;SDS011;3806;52.270;10.544;2023-03-21T06:43:41;14.65;;;6.07;;
7529;SDS011;3806;52.270;10.544;2023-03-21T06:46:07;11.77;;;6.00;;
7529;SDS011;3806;52.270;10.544;2023-03-21T06:48:32;14.45;;;6.65;;
7529;SDS011;3806;52.270;10.544;2023-03-21T06:50:58;9.52;;;6.13;;
7529;SDS011;3806;52.270;10.544;2023-03-21T06:53:24;11.32;;;5.63;;
7529;SDS011;3806;52.270;10.544;2023-03-21T06:55:53;9.32;;;5.97;;
7529;SDS011;3806;52.270;10.544;2023-03-21T06:58:20;9.95;;;5.85;;
7529;SDS011;3806;52.270;10.544;2023-03-21T07:00:46;9.68;;;5.22;;
7529;SDS011;3806;52.270;10.544;2023-03-21T07:03:12;11.80;;;7.40;;
7529;SDS011;3806;52.270;10.544;2023-03-21T07:05:38;10.48;;;5.55;;
7529;SDS011;3806;52.270;10.544;2023-03-21T07:08:04;10.43;;;5.95;;
7529;SDS011;3806;52.270;10.544;2023-03-21T07:10:37;9.65;;;5.80;;
7529;SDS011;3806;52.270;10.544;2023-03-21T07:13:04;14.10;;;6.22;;
7529;SDS011;3806;52.270;10.544;2023-03-21T07:15:29;16.52;;;6.55;;
7529;SDS011;3806;52.270;10.544;2023-03-21T07:17:56;10.15;;;5.50;;
7529;SDS011;3806;52.270;10.544;2023-03-21T07:20:21;11.77;;;5.93;;
7529;SDS011;3806;52.270;10.544;2023-03-21T07:22:47;13.82;;;5.63;;
7529;SDS011;3806;52.270;10.544;2023-03-21T07:25:12;11.15;;;5.38;;
7529;SDS011;3806;52.270;10.544;2023-03-21T07:27:38;9.40;;;6.03;;
7529;SDS011;3806;52.270;10.544;2023-03-21T07:30:04;11.77;;;6.10;;
7529;SDS011;3806;52.270;10.544;2023-03-21T07:32:31;12.77;;;6.20;;
7529;SDS011;3806;52.270;10.544;2023-03-21T07:34:58;9.93;;;5.50;;
7529;SDS011;3806;52.270;10.544;2023-03-21T07:37:24;13.70;;;5.97;;
7529;SDS011;3806;52.270;10.544;2023-03-21T07:39:50;9.65;;;5.55;;
7529;SDS011;3806;52.270;10.544;2023-03-21T07:42:16;10.45;;;5.35;;
7529;SDS011;3806;52.270;10.544;2023-03-21T07:44:42;11.93;;;5.90;;
7529;SDS011;3806;52.270;10.544;2023-03-21T07:47:07;11.15;;;6.32;;
7529;SDS011;3806;52.270;10.544;2023-03-21T07:49:33;8.93;;;5.63;;
7529;SDS011;3806;52.270;10.544;2023-03-21T07:51:58;9.93;;;5.40;;
7529;SDS011;3806;52.270;10.544;2023-03-21T07:54:25;12.23;;;5.22;;
7529;SDS011;3806;52.270;10.544;2023-03-21T07:56:52;10.23;;;5.40;;
7529;SDS011;3806;52.270;10.544;2023-03-21T07:59:18;9.80;;;5.78;;
7529;SDS011;3806;52.270;10.544;2023-03-21T08:01:44;12.95;;;5.20;;
7529;SDS011;3806;52.270;10.544;2023-03-21T08:04:09;14.10;;;5.78;;
7529;SDS011;3806;52.270;10.544;2023-03-21T08:06:35;12.50;;;7.15;;
7529;SDS011;3806;52.270;10.544;2023-03-21T08:09:00;10.45;;;4.90;;
7529;SDS011;3806;52.270;10.544;2023-03-21T08:11:27;14.23;;;5.68;;
7529;SDS011;3806;52.270;10.544;2023-03-21T08:13:55;9.45;;;4.78;;
7529;SDS011;3806;52.270;10.544;2023-03-21T08:16:21;14.15;;;6.38;;
7529;SDS011;3806;52.270;10.544;2023-03-21T08:18:47;12.00;;;5.95;;
7529;SDS011;3806;52.270;10.544;2023-03-21T08:21:12;13.95;;;6.22;;
7529;SDS011;3806;52.270;10.544;2023-03-21T08:23:38;9.20;;;6.40;;
7529;SDS011;3806;52.270;10.544;2023-03-21T08:26:03;11.80;;;6.03;;
7529;SDS011;3806;52.270;10.544;2023-03-21T08:28:29;8.77;;;5.57;;
7529;SDS011;3806;52.270;10.544;2023-03-21T08:30:55;10.10;;;5.75;;
7529;SDS011;3806;52.270;10.544;2023-03-21T08:33:20;10.35;;;5.82;;
7529;SDS011;3806;52.270;10.544;2023-03-21T08:35:46;11.88;;;5.65;;
7529;SDS011;3806;52.270;10.544;2023-03-21T08:38:12;12.77;;;5.38;;
7529;SDS011;3806;52.270;10.544;2023-03-21T08:40:38;15.43;;;5.82;;
7529;SDS011;3806;52.270;10.544;2023-03-21T08:43:03;10.40;;;5.25;;
7529;SDS011;3806;52.270;10.544;2023-03-21T08:45:30;11.70;;;5.85;;
7529;SDS011;3806;52.270;10.544;2023-03-21T08:47:55;8.95;;;6.20;;
7529;SDS011;3806;52.270;10.544;2023-03-21T08:50:22;10.20;;;5.75;;
7529;SDS011;3806;52.270;10.544;2023-03-21T08:52:50;11.80;;;6.22;;
7529;SDS011;3806;52.270;10.544;2023-03-21T08:55:16;10.07;;;5.68;;
7529;SDS011;3806;52.270;10.544;2023-03-21T08:57:42;12.80;;;5.93;;
7529;SDS011;3806;52.270;10.544;2023-03-21T09:00:09;8.30;;;5.10;;
7529;SDS011;3806;52.270;10.544;2023-03-21T09:02:38;11.85;;;5.55;;
7529;SDS011;3806;52.270;10.544;2023-03-21T09:05:05;11.50;;;5.57;;
7529;SDS011;3806;52.270;10.544;2023-03-21T09:07:31;13.65;;;5.82;;
7529;SDS011;3806;52.270;10.544;2023-03-21T09:10:00;11.57;;;5.93;;
7529;SDS011;3806;52.270;10.544;2023-03-21T09:12:29;10.02;;;4.63;;
7529;SDS011;3806;52.270;10.544;2023-03-21T09:14:55;12.50;;;5.57;;
7529;SDS011;3806;52.270;10.544;2023-03-21T09:17:20;10.82;;;5.45;;
7529;SDS011;3806;52.270;10.544;2023-03-21T09:19:46;9.43;;;4.70;;
7529;SDS011;3806;52.270;10.544;2023-03-21T09:22:13;11.63;;;5.28;;
7529;SDS011;3806;52.270;10.544;2023-03-21T09:24:44;9.88;;;5.57;;
7529;SDS011;3806;52.270;10.544;2023-03-21T09:27:11;11.20;;;4.82;;
7529;SDS011;3806;52.270;10.544;2023-03-21T09:29:38;13.68;;;5.72;;
7529;SDS011;3806;52.270;10.544;2023-03-21T09:32:07;9.80;;;5.28;;
7529;SDS011;3806;52.270;10.544;2023-03-21T09:34:33;9.73;;;5.70;;
7529;SDS011;3806;52.270;10.544;2023-03-21T09:37:00;9.93;;;5.15;;
7529;SDS011;3806;52.270;10.544;2023-03-21T09:39:27;13.43;;;5.03;;
7529;SDS011;3806;52.270;10.544;2023-03-21T09:44:53;12.93;;;6.05;;
7529;SDS011;3806;52.270;10.544;2023-03-21T09:47:24;12.07;;;5.85;;
7529;SDS011;3806;52.270;10.544;2023-03-21T09:50:03;12.07;;;5.67;;
7529;SDS011;3806;52.270;10.544;2023-03-21T09:55:22;16.60;;;6.38;;
7529;SDS011;3806;52.270;10.544;2023-03-21T09:58:03;12.20;;;6.53;;
7529;SDS011;3806;52.270;10.544;2023-03-21T10:00:56;13.68;;;6.22;;
7529;SDS011;3806;52.270;10.544;2023-03-21T10:03:31;11.52;;;6.10;;
7529;SDS011;3806;52.270;10.544;2023-03-21T10:06:02;14.98;;;7.63;;
7529;SDS011;3806;52.270;10.544;2023-03-21T10:08:36;13.57;;;7.82;;
7529;SDS011;3806;52.270;10.544;2023-03-21T10:11:09;13.18;;;6.28;;
7529;SDS011;3806;52.270;10.544;2023-03-21T10:13:49;14.85;;;7.15;;
7529;SDS011;3806;52.270;10.544;2023-03-21T10:16:22;14.13;;;6.80;;
7529;SDS011;3806;52.270;10.544;2023-03-21T10:18:54;14.80;;;7.30;;
7529;SDS011;3806;52.270;10.544;2023-03-21T10:21:25;16.08;;;6.50;;
7529;SDS011;3806;52.270;10.544;2023-03-21T10:23:54;14.50;;;5.63;;
7529;SDS011;3806;52.270;10.544;2023-03-21T10:26:23;13.07;;;6.43;;
7529;SDS011;3806;52.270;10.544;2023-03-21T10:28:51;15.48;;;6.22;;
7529;SDS011;3806;52.270;10.544;2023-03-21T10:31:20;9.68;;;5.93;;
7529;SDS011;3806;52.270;10.544;2023-03-21T10:33:53;13.32;;;6.28;;
7529;SDS011;3806;52.270;10.544;2023-03-21T10:36:25;11.55;;;5.25;;
7529;SDS011;3806;52.270;10.544;2023-03-21T10:39:01;10.93;;;5.43;;
7529;SDS011;3806;52.270;10.544;2023-03-21T10:41:30;9.90;;;5.45;;
7529;SDS011;3806;52.270;10.544;2023-03-21T10:44:30;11.80;;;6.07;;
7529;SDS011;3806;52.270;10.544;2023-03-21T10:46:56;9.43;;;5.20;;
7529;SDS011;3806;52.270;10.544;2023-03-21T10:49:24;10.52;;;4.93;;
7529;SDS011;3806;52.270;10.544;2023-03-21T10:51:51;11.68;;;5.53;;
7529;SDS011;3806;52.270;10.544;2023-03-21T10:54:20;11.00;;;5.50;;
7529;SDS011;3806;52.270;10.544;2023-03-21T10:56:54;7.93;;;4.43;;
7529;SDS011;3806;52.270;10.544;2023-03-21T10:59:35;14.82;;;6.40;;
7529;SDS011;3806;52.270;10.544;2023-03-21T11:02:10;10.85;;;4.95;;
7529;SDS011;3806;52.270;10.544;2023-03-21T11:04:49;9.13;;;4.25;;
7529;SDS011;3806;52.270;10.544;2023-03-21T11:07:17;11.70;;;6.05;;
7529;SDS011;3806;52.270;10.544;2023-03-21T11:09:48;10.00;;;5.15;;
7529;SDS011;3806;52.270;10.544;2023-03-21T11:12:18;9.90;;;5.00;;
7529;SDS011;3806;52.270;10.544;2023-03-21T11:15:23;9.88;;;5.05;;
7529;SDS011;3806;52.270;10.544;2023-03-21T11:17:56;9.05;;;4.75;;
7529;SDS011;3806;52.270;10.544;2023-03-21T11:20:22;10.57;;;4.95;;
7529;SDS011;3806;52.270;10.544;2023-03-21T11:22:48;11.73;;;5.25;;
7529;SDS011;3806;52.270;10.544;2023-03-21T11:25:19;12.73;;;5.03;;
7529;SDS011;3806;52.270;10.544;2023-03-21T11:27:50;14.63;;;5.15;;
7529;SDS011;3806;52.270;10.544;2023-03-21T11:30:20;9.05;;;5.80;;
7529;SDS011;3806;52.270;10.544;2023-03-21T11:32:53;11.88;;;5.65;;
7529;SDS011;3806;52.270;10.544;2023-03-21T11:35:35;14.77;;;6.00;;
7529;SDS011;3806;52.270;10.544;2023-03-21T11:38:02;9.43;;;4.80;;
7529;SDS011;3806;52.270;10.544;2023-03-21T11:40:30;12.27;;;6.00;;
7529;SDS011;3806;52.270;10.544;2023-03-21T11:43:01;10.95;;;5.10;;
7529;SDS011;3806;52.270;10.544;2023-03-21T11:48:28;14.93;;;5.28;;
7529;SDS011;3806;52.270;10.544;2023-03-21T11:51:09;7.80;;;5.18;;
7529;SDS011;3806;52.270;10.544;2023-03-21T11:53:50;9.82;;;5.57;;
7529;SDS011;3806;52.270;10.544;2023-03-21T11:56:31;8.88;;;5.00;;
7529;SDS011;3806;52.270;10.544;2023-03-21T11:59:17;9.65;;;4.72;;
7529;SDS011;3806;52.270;10.544;2023-03-21T12:02:02;12.32;;;5.78;;
7529;SDS011;3806;52.270;10.544;2023-03-21T12:08:01;9.57;;;5.35;;
7529;SDS011;3806;52.270;10.544;2023-03-21T12:11:00;13.20;;;5.43;;
7529;SDS011;3806;52.270;10.544;2023-03-21T12:13:46;12.75;;;5.25;;
7529;SDS011;3806;52.270;10.544;2023-03-21T12:24:39;13.65;;;6.43;;
7529;SDS011;3806;52.270;10.544;2023-03-21T12:27:16;11.25;;;5.32;;
7529;SDS011;3806;52.270;10.544;2023-03-21T12:29:58;11.18;;;5.45;;
7529;SDS011;3806;52.270;10.544;2023-03-21T12:35:43;10.77;;;5.57;;
7529;SDS011;3806;52.270;10.544;2023-03-21T12:38:21;11.13;;;5.87;;
7529;SDS011;3806;52.270;10.544;2023-03-21T12:43:44;9.65;;;4.63;;
7529;SDS011;3806;52.270;10.544;2023-03-21T12:46:19;11.35;;;5.40;;
7529;SDS011;3806;52.270;10.544;2023-03-21T12:51:21;11.98;;;5.18;;
7529;SDS011;3806;52.270;10.544;2023-03-21T12:53:52;10.73;;;5.32;;
7529;SDS011;3806;52.270;10.544;2023-03-21T12:59:20;9.10;;;4.38;;
7529;SDS011;3806;52.270;10.544;2023-03-21T13:01:58;8.50;;;5.00;;
7529;SDS011;3806;52.270;10.544;2023-03-21T13:04:30;11.98;;;5.45;;
7529;SDS011;3806;52.270;10.544;2023-03-21T13:07:16;10.63;;;5.60;;
7529;SDS011;3806;52.270;10.544;2023-03-21T13:09:44;13.40;;;5.65;;
7529;SDS011;3806;52.270;10.544;2023-03-21T13:12:32;15.10;;;6.50;;
7529;SDS011;3806;52.270;10.544;2023-03-21T13:29:52;12.55;;;5.07;;
7529;SDS011;3806;52.270;10.544;2023-03-21T13:34:55;13.95;;;5.00;;
7529;SDS011;3806;52.270;10.544;2023-03-21T13:37:24;12.20;;;6.70;;
7529;SDS011;3806;52.270;10.544;2023-03-21T13:40:02;15.32;;;5.82;;
7529;SDS011;3806;52.270;10.544;2023-03-21T13:42:35;10.95;;;6.20;;
7529;SDS011;3806;52.270;10.544;2023-03-21T13:45:09;14.32;;;6.30;;
7529;SDS011;3806;52.270;10.544;2023-03-21T13:47:41;9.90;;;5.82;;
7529;SDS011;3806;52.270;10.544;2023-03-21T13:50:21;18.35;;;7.70;;
7529;SDS011;3806;52.270;10.544;2023-03-21T13:55:26;12.93;;;6.03;;
7529;SDS011;3806;52.270;10.544;2023-03-21T13:57:53;10.75;;;5.90;;
7529;SDS011;3806;52.270;10.544;2023-03-21T14:00:28;12.60;;;6.65;;
7529;SDS011;3806;52.270;10.544;2023-03-21T14:02:58;14.70;;;6.15;;
7529;SDS011;3806;52.270;10.544;2023-03-21T14:05:29;17.88;;;7.65;;
7529;SDS011;3806;52.270;10.544;2023-03-21T14:07:57;16.75;;;6.95;;
7529;SDS011;3806;52.270;10.544;2023-03-21T14:10:34;11.93;;;6.72;;
7529;SDS011;3806;52.270;10.544;2023-03-21T14:13:06;11.10;;;7.47;;
7529;SDS011;3806;52.270;10.544;2023-03-21T14:15:45;12.63;;;6.65;;
7529;SDS011;3806;52.270;10.544;2023-03-21T14:18:18;10.82;;;5.75;;
7529;SDS011;3806;52.270;10.544;2023-03-21T14:20:49;17.67;;;6.70;;
7529;SDS011;3806;52.270;10.544;2023-03-21T14:23:20;9.30;;;5.80;;
7529;SDS011;3806;52.270;10.544;2023-03-21T14:25:46;13.07;;;6.70;;
7529;SDS011;3806;52.270;10.544;2023-03-21T14:28:17;14.38;;;6.88;;
7529;SDS011;3806;52.270;10.544;2023-03-21T14:30:46;15.68;;;6.88;;
7529;SDS011;3806;52.270;10.544;2023-03-21T14:33:17;15.77;;;6.90;;
7529;SDS011;3806;52.270;10.544;2023-03-21T14:35:49;14.32;;;6.38;;
7529;SDS011;3806;52.270;10.544;2023-03-21T14:38:19;16.77;;;7.07;;
7529;SDS011;3806;52.270;10.544;2023-03-21T14:40:47;16.60;;;6.93;;
7529;SDS011;3806;52.270;10.544;2023-03-21T14:43:16;15.35;;;6.68;;
7529;SDS011;3806;52.270;10.544;2023-03-21T14:45:43;12.48;;;7.38;;
7529;SDS011;3806;52.270;10.544;2023-03-21T14:48:13;13.70;;;6.03;;
7529;SDS011;3806;52.270;10.544;2023-03-21T14:50:44;11.57;;;6.35;;
7529;SDS011;3806;52.270;10.544;2023-03-21T14:53:27;13.48;;;6.57;;
7529;SDS011;3806;52.270;10.544;2023-03-21T14:56:05;13.45;;;6.18;;
7529;SDS011;3806;52.270;10.544;2023-03-21T14:58:36;10.43;;;5.70;;
7529;SDS011;3806;52.270;10.544;2023-03-21T15:01:04;12.55;;;5.40;;
7529;SDS011;3806;52.270;10.544;2023-03-21T15:03:32;11.82;;;5.32;;
7529;SDS011;3806;52.270;10.544;2023-03-21T15:05:59;11.38;;;5.50;;
7529;SDS011;3806;52.270;10.544;2023-03-21T15:08:26;12.13;;;6.47;;
7529;SDS011;3806;52.270;10.544;2023-03-21T15:10:54;13.38;;;6.40;;
7529;SDS011;3806;52.270;10.544;2023-03-21T15:13:22;11.10;;;6.15;;
7529;SDS011;3806;52.270;10.544;2023-03-21T15:15:52;10.05;;;5.30;;
7529;SDS011;3806;52.270;10.544;2023-03-21T15:18:21;12.88;;;6.53;;
7529;SDS011;3806;52.270;10.544;2023-03-21T15:20:50;13.48;;;5.88;;
7529;SDS011;3806;52.270;10.544;2023-03-21T15:23:25;12.55;;;5.95;;
7529;SDS011;3806;52.270;10.544;2023-03-21T15:25:57;9.20;;;4.90;;
7529;SDS011;3806;52.270;10.544;2023-03-21T15:28:26;9.20;;;5.68;;
7529;SDS011;3806;52.270;10.544;2023-03-21T15:30:52;12.82;;;6.43;;
7529;SDS011;3806;52.270;10.544;2023-03-21T15:33:18;12.75;;;6.38;;
7529;SDS011;3806;52.270;10.544;2023-03-21T15:35:51;13.00;;;6.35;;
7529;SDS011;3806;52.270;10.544;2023-03-21T15:41:15;11.95;;;5.90;;
7529;SDS011;3806;52.270;10.544;2023-03-21T15:43:40;11.00;;;5.55;;
7529;SDS011;3806;52.270;10.544;2023-03-21T15:46:12;10.00;;;5.25;;
7529;SDS011;3806;52.270;10.544;2023-03-21T15:48:39;12.60;;;6.22;;
7529;SDS011;3806;52.270;10.544;2023-03-21T15:51:05;11.48;;;5.80;;
7529;SDS011;3806;52.270;10.544;2023-03-21T15:53:35;10.43;;;5.75;;
7529;SDS011;3806;52.270;10.544;2023-03-21T15:56:03;11.73;;;5.85;;
7529;SDS011;3806;52.270;10.544;2023-03-21T15:58:38;12.25;;;5.40;;
7529;SDS011;3806;52.270;10.544;2023-03-21T16:01:10;13.95;;;5.65;;
7529;SDS011;3806;52.270;10.544;2023-03-21T16:03:47;12.15;;;5.82;;
7529;SDS011;3806;52.270;10.544;2023-03-21T16:06:20;10.50;;;6.00;;
7529;SDS011;3806;52.270;10.544;2023-03-21T16:08:53;11.40;;;7.10;;
7529;SDS011;3806;52.270;10.544;2023-03-21T16:14:17;12.27;;;5.38;;
7529;SDS011;3806;52.270;10.544;2023-03-21T16:16:44;10.85;;;5.00;;
7529;SDS011;3806;52.270;10.544;2023-03-21T16:19:10;8.23;;;4.97;;
7529;SDS011;3806;52.270;10.544;2023-03-21T16:21:36;8.75;;;5.07;;
7529;SDS011;3806;52.270;10.544;2023-03-21T16:24:02;11.38;;;4.60;;